Time;durP1;ratioP1;P1;durP2;ratioP2;P2;SDS_P1;SDS_P2;PMS_P1;PMS_P2;Temp;Humidity;BMP_temperature;BMP_pressure;BME280_temperature;BME280_humidity;BME280_pressure;Samples;Min_cycle;Max_cycle;Signal;HPM_P1;HPM_P2
2021/01/05 00:00:57;;;;;;;;;;;;;;;21.98;52.99;101275.16;2090701;28;13645;-36
2021/01/05 00:01:57;;;;;;;;;;;;;;;22.00;52.75;101266.28;2088568;28;42753;-36
2021/01/05 00:02:57;;;;;;;;;;;;;;;22.01;53.00;101271.63;2090769;28;30588;-36
2021/01/05 00:03:57;;;;;;;;;;;;;;;22.07;52.77;101268.56;2091059;28;43172;-36
2021/01/05 00:04:58;;;;;;;;;;;;;;;22.07;52.83;101274.25;2090867;28;29632;-36
2021/01/05 00:05:58;;;;;;;;;;;;;;;22.00;52.99;101275.66;2090621;28;38441;-36
2021/01/05 00:07:05;;;;;;;;;;;;;;;21.95;53.15;101277.88;2089900;28;41547;-36
2021/01/05 00:08:05;;;;;;;;;;;;;;;21.94;52.52;101274.19;2092006;28;12086;-36
2021/01/05 00:09:05;;;;;;;;;;;;;;;21.98;52.79;101277.19;2090363;28;42318;-36
2021/01/05 00:10:06;;;;;;;;;;;;;;;22.01;52.75;101274.47;2090425;28;40411;-36
2021/01/05 00:11:06;;;;;;;;;;;;;;;22.04;52.34;101272.94;2089548;28;41502;-36
2021/01/05 00:12:11;;;;;;;;;;;;;;;22.07;52.25;101275.09;2087812;28;41668;-36
2021/01/05 00:13:11;;;;;;;;;;;;;;;22.02;52.36;101269.59;2091490;28;12831;-36
2021/01/05 00:14:11;;;;;;;;;;;;;;;21.99;52.35;101271.13;2088716;28;42376;-36
2021/01/05 00:15:11;;;;;;;;;;;;;;;21.99;52.25;101273.97;2089214;28;42115;-36
2021/01/05 00:16:12;;;;;;;;;;;;;;;21.99;52.24;101273.97;2091239;28;39062;-35
2021/01/05 00:17:13;;;;;;;;;;;;;;;22.00;52.17;101275.66;2090007;28;41381;-35
2021/01/05 00:18:13;;;;;;;;;;;;;;;22.02;52.26;101276.13;2087816;28;41528;-36
2021/01/05 00:19:14;;;;;;;;;;;;;;;22.03;52.12;101274.13;2091695;28;12630;-36
2021/01/05 00:20:32;;;;;;;;;;;;;;;22.00;52.01;101269.97;2090921;28;38428;-36
2021/01/05 00:21:33;;;;;;;;;;;;;;;22.01;51.73;101274.47;2089497;28;12157;-36
2021/01/05 00:22:34;;;;;;;;;;;;;;;22.04;51.78;101278.63;2091079;28;12107;-36
2021/01/05 00:23:34;;;;;;;;;;;;;;;22.02;51.80;101269.59;2089482;28;42175;-35
2021/01/05 00:24:34;;;;;;;;;;;;;;;21.99;51.83;101276.81;2090517;28;38465;-36
2021/01/05 00:25:34;;;;;;;;;;;;;;;22.01;51.73;101267.94;2089930;28;41548;-36
2021/01/05 00:26:35;;;;;;;;;;;;;;;22.06;51.90;101276.28;2090059;28;43834;-35
2021/01/05 00:27:35;;;;;;;;;;;;;;;22.11;52.08;101273.22;2088399;28;38536;-36
2021/01/05 00:28:36;;;;;;;;;;;;;;;22.09;52.24;101271.91;2091449;28;13433;-36
2021/01/05 00:29:36;;;;;;;;;;;;;;;22.09;52.28;101269.03;2090522;28;42752;-36
2021/01/05 00:30:36;;;;;;;;;;;;;;;22.08;52.45;101273.06;2089946;28;43674;-36
2021/01/05 00:31:36;;;;;;;;;;;;;;;22.09;52.10;101269.88;2090200;28;39889;-36
2021/01/05 00:32:39;;;;;;;;;;;;;;;22.10;52.04;101276.41;2089981;28;43726;-36
2021/01/05 00:33:39;;;;;;;;;;;;;;;22.09;51.86;101272.72;2087536;28;13289;-36
2021/01/05 00:34:39;;;;;;;;;;;;;;;22.12;51.99;101277.72;2088923;28;42711;-35
2021/01/05 00:35:39;;;;;;;;;;;;;;;22.07;52.06;101277.94;2090676;28;39760;-39
2021/01/05 00:36:40;;;;;;;;;;;;;;;22.10;51.99;101280.06;2090111;28;43190;-36
2021/01/05 00:37:40;;;;;;;;;;;;;;;22.10;52.13;101280.06;2090135;28;43986;-36
2021/01/05 00:38:40;;;;;;;;;;;;;;;22.13;52.11;101273.69;2089696;28;42056;-36
2021/01/05 00:39:41;;;;;;;;;;;;;;;22.12;51.89;101279.75;2089619;28;42917;-36
2021/01/05 00:40:41;;;;;;;;;;;;;;;22.10;51.96;101274.38;2090395;28;43548;-36
2021/01/05 00:41:41;;;;;;;;;;;;;;;22.12;51.97;101283.41;2090722;28;18534;-37
2021/01/05 00:42:42;;;;;;;;;;;;;;;22.09;51.85;101281.28;2089118;28;42933;-35
2021/01/05 00:43:42;;;;;;;;;;;;;;;22.11;51.86;101275.19;2089641;28;42886;-35
2021/01/05 00:44:42;;;;;;;;;;;;;;;22.11;52.11;101283.75;2088517;28;43679;-36
2021/01/05 00:45:43;;;;;;;;;;;;;;;22.12;51.91;101291.13;2090172;28;40320;-35
2021/01/05 00:46:43;;;;;;;;;;;;;;;22.09;51.82;101286.16;2090309;28;34630;-36
2021/01/05 00:47:43;;;;;;;;;;;;;;;22.12;51.60;101285.44;2090166;28;44134;-36
2021/01/05 00:48:43;;;;;;;;;;;;;;;22.09;51.77;101291.84;2090304;28;40063;-35
2021/01/05 00:49:44;;;;;;;;;;;;;;;22.07;51.79;101289.31;2090140;28;41934;-36
2021/01/05 00:50:44;;;;;;;;;;;;;;;22.08;52.40;101295.84;2090130;28;45753;-35
2021/01/05 00:51:44;;;;;;;;;;;;;;;22.04;52.10;101292.88;2088959;28;44245;-35
2021/01/05 00:52:44;;;;;;;;;;;;;;;22.05;52.12;101290.84;2087690;28;43044;-35
2021/01/05 00:53:44;;;;;;;;;;;;;;;22.06;51.89;101295.41;2090368;28;42843;-35
2021/01/05 00:54:45;;;;;;;;;;;;;;;22.04;51.92;101290.03;2090493;28;44312;-36
2021/01/05 00:55:45;;;;;;;;;;;;;;;22.06;51.69;101289.69;2090106;28;40176;-36
2021/01/05 00:56:56;;;;;;;;;;;;;;;22.01;51.80;101294.41;2090157;28;43476;-36
2021/01/05 00:57:56;;;;;;;;;;;;;;;21.97;52.06;101281.19;2090379;28;35897;-36
2021/01/05 00:58:57;;;;;;;;;;;;;;;21.99;51.88;101288.22;2089995;28;43105;-36
2021/01/05 00:59:57;;;;;;;;;;;;;;;22.02;52.85;101283.84;2090471;28;43862;-36
2021/01/05 01:00:57;;;;;;;;;;;;;;;21.98;52.03;101291.44;2090289;28;40229;-36
2021/01/05 01:01:57;;;;;;;;;;;;;;;21.96;51.97;101286.06;2089698;28;41645;-36
2021/01/05 01:02:58;;;;;;;;;;;;;;;21.95;52.19;101292.97;2088779;28;43919;-36
2021/01/05 01:03:58;;;;;;;;;;;;;;;21.95;52.11;101289.28;2090115;28;43411;-36
2021/01/05 01:04:58;;;;;;;;;;;;;;;21.99;52.13;101290.25;2089536;28;43314;-36
2021/01/05 01:05:58;;;;;;;;;;;;;;;22.00;52.91;101287.06;2089883;28;44301;-36
2021/01/05 01:06:59;;;;;;;;;;;;;;;22.02;53.24;101281.00;2090130;28;40212;-35
2021/01/05 01:07:59;;;;;;;;;;;;;;;22.03;53.25;101288.38;2089859;28;43197;-36
2021/01/05 01:08:59;;;;;;;;;;;;;;;21.99;53.31;101293.09;2091663;28;13513;-36
2021/01/05 01:10:00;;;;;;;;;;;;;;;21.98;53.36;101280.88;2090117;28;38656;-35
2021/01/05 01:11:00;;;;;;;;;;;;;;;21.97;53.18;101286.91;2090383;28;41226;-36
2021/01/05 01:12:02;;;;;;;;;;;;;;;21.93;53.50;101286.78;2089294;28;42567;-36
2021/01/05 01:13:02;;;;;;;;;;;;;;;21.98;53.17;101291.44;2090492;28;12876;-37
2021/01/05 01:14:02;;;;;;;;;;;;;;;21.98;53.14;101282.88;2089761;28;41625;-36
2021/01/05 01:15:03;;;;;;;;;;;;;;;21.98;53.14;101285.72;2089876;28;42254;-37
2021/01/05 01:16:04;;;;;;;;;;;;;;;21.99;53.50;101285.38;2089638;28;41315;-36
2021/01/05 01:17:04;;;;;;;;;;;;;;;21.99;53.30;101285.38;2090234;28;40967;-36
2021/01/05 01:18:04;;;;;;;;;;;;;;;21.98;53.14;101282.88;2087337;28;42634;-37
2021/01/05 01:19:04;;;;;;;;;;;;;;;21.96;53.42;101288.91;2089450;28;38617;-37
2021/01/05 01:20:08;;;;;;;;;;;;;;;22.00;53.03;101286.22;2089097;28;41726;-36
2021/01/05 01:21:08;;;;;;;;;;;;;;;22.01;53.05;101287.88;2088062;28;12129;-36
2021/01/05 01:22:08;;;;;;;;;;;;;;;22.00;52.98;101289.06;2089597;28;38502;-35
2021/01/05 01:23:08;;;;;;;;;;;;;;;22.00;52.96;101283.38;2089818;28;42591;-36
2021/01/05 01:24:09;;;;;;;;;;;;;;;21.98;53.17;101286.56;2087982;28;41229;-37
2021/01/05 01:25:09;;;;;;;;;;;;;;;22.01;52.59;101283.00;2090738;28;39063;-36
2021/01/05 01:26:09;;;;;;;;;;;;;;;22.04;52.97;101283.50;2089705;28;40895;-36
2021/01/05 01:27:10;;;;;;;;;;;;;;;22.04;52.60;101281.47;2089866;28;41085;-36
2021/01/05 01:28:10;;;;;;;;;;;;;;;22.04;52.63;101290.03;2089830;28;38570;-36
2021/01/05 01:29:13;;;;;;;;;;;;;;;22.02;52.75;101292.38;2086839;28;41025;-37
2021/01/05 01:30:13;;;;;;;;;;;;;;;22.04;52.67;101292.06;2090917;28;12989;-36
2021/01/05 01:31:14;;;;;;;;;;;;;;;22.08;52.68;101282.47;2090559;28;26920;-37
2021/01/05 01:32:14;;;;;;;;;;;;;;;22.08;52.50;101279.63;2089700;28;42634;-36
2021/01/05 01:33:14;;;;;;;;;;;;;;;22.14;52.54;101285.94;2089363;28;43023;-36
2021/01/05 01:34:15;;;;;;;;;;;;;;;22.08;52.51;101282.47;2089736;28;43014;-36
2021/01/05 01:35:15;;;;;;;;;;;;;;;22.15;52.80;101279.88;2089672;28;42849;-36
2021/01/05 01:36:16;;;;;;;;;;;;;;;22.15;52.39;101271.31;2089893;28;42671;-36
2021/01/05 01:37:16;;;;;;;;;;;;;;;22.17;51.83;101276.69;2090501;28;14258;-36
2021/01/05 01:38:16;;;;;;;;;;;;;;;22.20;51.74;101281.72;2091325;28;12114;-37
2021/01/05 01:39:17;;;;;;;;;;;;;;;22.19;51.62;101280.03;2089136;28;44218;-36
2021/01/05 01:40:26;;;;;;;;;;;;;;;22.15;51.81;101277.00;2090295;28;43931;-36
2021/01/05 01:41:26;;;;;;;;;;;;;;;22.18;51.79;101284.91;2089596;28;41488;-37
2021/01/05 01:42:26;;;;;;;;;;;;;;;22.18;51.81;101279.19;2087465;28;44021;-36
2021/01/05 01:43:26;;;;;;;;;;;;;;;22.16;51.80;101275.00;2083950;28;44327;-36
2021/01/05 01:44:30;;;;;;;;;;;;;;;22.12;52.05;101277.72;2089474;28;40234;-36
2021/01/05 01:45:30;;;;;;;;;;;;;;;22.13;51.98;101281.41;2089946;28;42639;-36
2021/01/05 01:46:32;;;;;;;;;;;;;;;22.11;51.90;101283.75;2090978;28;13465;-36
2021/01/05 01:47:36;;;;;;;;;;;;;;;22.16;51.87;101280.69;2089857;28;39819;-36
2021/01/05 01:48:37;;;;;;;;;;;;;;;22.14;51.62;101281.06;2090838;28;13201;-36
2021/01/05 01:49:37;;;;;;;;;;;;;;;22.13;51.86;101285.06;2090073;28;40019;-37
2021/01/05 01:50:37;;;;;;;;;;;;;;;22.12;51.83;101283.41;2089646;28;43548;-36
2021/01/05 01:51:37;;;;;;;;;;;;;;;22.10;51.77;101287.78;2089503;28;43430;-36
2021/01/05 01:52:56;;;;;;;;;;;;;;;22.10;51.70;101282.94;2089208;28;43124;-36
2021/01/05 01:54:05;;;;;;;;;;;;;;;22.10;51.56;101291.47;2088333;28;13807;-36
2021/01/05 01:55:18;;;;;;;;;;;;;;;22.12;51.56;101300.50;2089183;28;29498;-37
2021/01/05 01:56:27;;;;;;;;;;;;;;;22.11;51.58;101290.31;2090409;28;13690;-37
2021/01/05 01:57:36;;;;;;;;;;;;;;;22.12;51.40;101294.00;2090548;28;13697;-36
2021/01/05 01:58:36;;;;;;;;;;;;;;;22.11;51.40;101295.16;2084605;28;13493;-36
2021/01/05 01:59:42;;;;;;;;;;;;;;;22.14;51.26;101301.00;2089541;28;42849;-36
2021/01/05 02:01:01;;;;;;;;;;;;;;;22.10;51.38;101291.47;2089418;28;41703;-36
2021/01/05 02:02:05;;;;;;;;;;;;;;;22.12;51.43;101297.66;2088047;28;12777;-36
2021/01/05 02:03:06;;;;;;;;;;;;;;;22.11;51.18;101292.31;2088676;28;44576;-36
2021/01/05 02:04:17;;;;;;;;;;;;;;;22.11;51.28;101289.44;2088079;28;43126;-37
2021/01/05 02:05:17;;;;;;;;;;;;;;;22.10;51.21;101294.31;2106438;28;13534;-36
2021/01/05 02:06:29;;;;;;;;;;;;;;;22.12;51.32;101291.13;2104799;28;44260;-36
2021/01/05 02:07:36;;;;;;;;;;;;;;;22.12;51.10;101286.28;2089402;28;27682;-36
2021/01/05 02:08:39;;;;;;;;;;;;;;;22.10;51.08;101282.09;2082801;28;13903;-36
2021/01/05 02:09:58;;;;;;;;;;;;;;;22.09;51.19;101286.97;2089471;28;13642;-36
2021/01/05 02:11:03;;;;;;;;;;;;;;;22.11;51.16;101290.31;2087647;28;13636;-37
2021/01/05 02:12:04;;;;;;;;;;;;;;;22.10;51.04;101288.63;2105819;28;42886;-36
2021/01/05 02:13:08;;;;;;;;;;;;;;;22.09;50.98;101289.00;2104138;28;14025;-36
2021/01/05 02:14:16;;;;;;;;;;;;;;;22.10;50.96;101285.78;2088262;28;40062;-36
2021/01/05 02:15:22;;;;;;;;;;;;;;;22.13;50.93;101290.78;2082838;28;42040;-36
2021/01/05 02:16:31;;;;;;;;;;;;;;;21.89;50.37;101288.66;2093207;28;13503;-36
2021/01/05 02:17:43;;;;;;;;;;;;;;;21.72;51.62;101294.47;2088854;28;18795;-36
2021/01/05 02:18:45;;;;;;;;;;;;;;;21.83;50.87;101289.19;2089883;28;12578;-35
2021/01/05 02:19:46;;;;;;;;;;;;;;;21.91;50.81;101283.44;2090141;28;38608;-36
2021/01/05 02:20:47;;;;;;;;;;;;;;;22.02;50.20;101286.69;2090586;28;12103;-35
2021/01/05 02:21:56;;;;;;;;;;;;;;;22.09;50.12;101280.44;2106250;28;13654;-36
2021/01/05 02:23:04;;;;;;;;;;;;;;;22.07;50.14;101283.63;2094538;28;38159;-35
2021/01/05 02:24:13;;;;;;;;;;;;;;;22.10;50.34;101277.22;2095915;28;42040;-36
2021/01/05 02:25:18;;;;;;;;;;;;;;;22.13;50.29;101287.09;2102827;28;13050;-36
2021/01/05 02:26:27;;;;;;;;;;;;;;;22.13;50.08;101282.22;2089274;28;41323;-35
2021/01/05 02:27:27;;;;;;;;;;;;;;;22.12;50.23;101286.28;2088124;28;13177;-36
2021/01/05 02:28:36;;;;;;;;;;;;;;;22.11;50.20;101284.63;2089609;28;42168;-35
2021/01/05 02:29:41;;;;;;;;;;;;;;;22.10;49.87;101287.78;2095645;28;41375;-36
2021/01/05 02:30:43;;;;;;;;;;;;;;;22.14;50.05;101278.22;2089214;28;12903;-36
2021/01/05 02:31:56;;;;;;;;;;;;;;;22.13;50.10;101285.06;2088498;28;41882;-36
2021/01/05 02:33:04;;;;;;;;;;;;;;;22.14;50.01;101278.22;2086127;28;12191;-36
2021/01/05 02:34:05;;;;;;;;;;;;;;;22.15;50.00;101279.03;2089078;28;41414;-36
2021/01/05 02:35:25;;;;;;;;;;;;;;;22.12;50.00;101274.88;2087666;28;12243;-37
2021/01/05 02:36:27;;;;;;;;;;;;;;;22.08;50.17;101275.91;2090677;28;12628;-36
2021/01/05 02:37:31;;;;;;;;;;;;;;;22.07;50.09;101277.09;2106699;28;15868;-36
2021/01/05 02:38:49;;;;;;;;;;;;;;;22.08;49.93;101276.75;2089513;28;42501;-36
2021/01/05 02:40:22;;;;;;;;;;;;;;;22.08;50.03;101273.91;2090689;28;12927;-36
2021/01/05 02:41:41;;;;;;;;;;;;;;;22.09;49.94;101271.91;2090289;28;13288;-36
2021/01/05 02:42:47;;;;;;;;;;;;;;;22.08;49.85;101273.91;2083788;28;14800;-36
2021/01/05 02:43:48;;;;;;;;;;;;;;;22.09;49.68;101267.03;2088186;28;43008;-36
2021/01/05 02:44:48;;;;;;;;;;;;;;;22.05;49.81;101268.06;2088302;28;44399;-35
2021/01/05 02:46:09;;;;;;;;;;;;;;;22.08;49.70;101262.53;2105189;28;12848;-36
2021/01/05 02:47:23;;;;;;;;;;;;;;;22.04;49.97;101261.53;2095312;28;13405;-35
2021/01/05 02:48:42;;;;;;;;;;;;;;;22.04;50.04;101267.25;2089647;28;17669;-35
2021/01/05 02:49:46;;;;;;;;;;;;;;;22.02;50.47;101269.59;2090248;28;18310;-37
2021/01/05 02:50:54;;;;;;;;;;;;;;;22.05;50.41;101268.06;2084358;28;12747;-36
2021/01/05 02:52:11;;;;;;;;;;;;;;;22.05;50.20;101262.38;2088495;28;45620;-36
2021/01/05 02:53:24;;;;;;;;;;;;;;;21.98;50.34;101262.94;2096483;28;39686;-36
2021/01/05 02:54:47;;;;;;;;;;;;;;;22.00;50.41;101263.44;2090854;28;43723;-36
2021/01/05 02:56:13;;;;;;;;;;;;;;;21.96;50.41;101259.59;2082511;28;12188;-35
2021/01/05 02:57:14;;;;;;;;;;;;;;;21.96;50.51;101268.16;2090083;28;13433;-36
2021/01/05 02:58:20;;;;;;;;;;;;;;;21.94;50.37;101268.47;2089855;28;13370;-36
2021/01/05 02:59:23;;;;;;;;;;;;;;;21.96;50.39;101266.13;2086818;28;42504;-36
2021/01/05 03:00:31;;;;;;;;;;;;;;;21.97;50.29;101264.09;2089491;28;13296;-35
2021/01/05 03:01:39;;;;;;;;;;;;;;;21.97;50.07;101264.09;2105004;28;43554;-36
2021/01/05 03:02:48;;;;;;;;;;;;;;;21.98;49.93;101265.78;2096581;28;13263;-35
2021/01/05 03:03:48;;;;;;;;;;;;;;;21.99;50.01;101273.16;2088892;28;43957;-36
2021/01/05 03:04:48;;;;;;;;;;;;;;;21.97;50.48;101267.81;2089270;28;44295;-35
2021/01/05 03:05:49;;;;;;;;;;;;;;;21.95;50.27;101264.47;2089129;28;43140;-36
2021/01/05 03:06:54;;;;;;;;;;;;;;;21.95;50.04;101266.50;2089295;28;43021;-36
2021/01/05 03:07:55;;;;;;;;;;;;;;;21.92;50.06;101264.34;2089219;28;43064;-36
2021/01/05 03:09:00;;;;;;;;;;;;;;;21.88;50.19;101263.34;2088534;28;44005;-36
2021/01/05 03:10:20;;;;;;;;;;;;;;;21.88;50.48;101263.34;2085224;28;13659;-36
2021/01/05 03:11:22;;;;;;;;;;;;;;;21.87;50.43;101267.41;2090875;28;13639;-36
2021/01/05 03:12:41;;;;;;;;;;;;;;;21.84;50.63;101256.72;2106078;28;24046;-35
2021/01/05 03:13:45;;;;;;;;;;;;;;;21.85;50.53;101252.66;2095379;28;13560;-35
2021/01/05 03:14:51;;;;;;;;;;;;;;;21.85;50.58;101264.88;2093728;28;41740;-35
2021/01/05 03:15:58;;;;;;;;;;;;;;;21.87;50.24;101259.69;2089320;28;13520;-35
2021/01/05 03:17:01;;;;;;;;;;;;;;;21.87;50.12;101256.00;2088683;28;44050;-35
2021/01/05 03:18:15;;;;;;;;;;;;;;;21.86;50.22;101258.03;2104114;28;31043;-36
2021/01/05 03:19:20;;;;;;;;;;;;;;;21.90;50.18;101261.84;2093142;28;42137;-35
2021/01/05 03:20:22;;;;;;;;;;;;;;;21.89;50.13;101260.19;2089953;28;12923;-36
2021/01/05 03:21:23;;;;;;;;;;;;;;;21.88;50.23;101264.19;2104960;28;40765;-36
2021/01/05 03:22:25;;;;;;;;;;;;;;;21.90;50.17;101261.00;2096630;28;13596;-36
2021/01/05 03:23:25;;;;;;;;;;;;;;;21.90;50.15;101263.84;2097708;28;12665;-35
2021/01/05 03:24:25;;;;;;;;;;;;;;;21.87;50.12;101265.38;2100467;28;42961;-35
2021/01/05 03:25:27;;;;;;;;;;;;;;;21.89;50.08;101265.88;2094461;28;13407;-35
2021/01/05 03:26:30;;;;;;;;;;;;;;;21.93;49.93;101257.44;2105945;28;43692;-35
2021/01/05 03:27:31;;;;;;;;;;;;;;;21.93;50.08;101263.97;2094997;28;44213;-36
2021/01/05 03:28:31;;;;;;;;;;;;;;;21.94;50.02;101257.09;2094735;28;39864;-36
2021/01/05 03:29:31;;;;;;;;;;;;;;;21.94;49.85;101259.94;2103728;28;23092;-35
2021/01/05 03:30:33;;;;;;;;;;;;;;;21.94;49.74;101259.94;2091343;28;38669;-36
2021/01/05 03:31:36;;;;;;;;;;;;;;;21.94;49.81;101256.25;2089975;28;42216;-36
2021/01/05 03:32:36;;;;;;;;;;;;;;;21.94;49.80;101257.09;2090988;28;40381;-35
2021/01/05 03:33:36;;;;;;;;;;;;;;;21.96;49.69;101256.75;2090385;28;38392;-36
2021/01/05 03:34:36;;;;;;;;;;;;;;;21.94;49.74;101259.94;2089076;28;41657;-36
2021/01/05 03:35:37;;;;;;;;;;;;;;;21.94;49.76;101267.66;2088559;28;42444;-36
2021/01/05 03:36:37;;;;;;;;;;;;;;;21.92;49.89;101252.94;2089934;28;12849;-35
2021/01/05 03:37:37;;;;;;;;;;;;;;;21.97;49.53;101258.41;2090215;28;42094;-36
2021/01/05 03:38:37;;;;;;;;;;;;;;;21.93;49.62;101257.44;2090826;28;38920;-36
2021/01/05 03:39:38;;;;;;;;;;;;;;;21.93;49.67;101260.31;2090530;28;41619;-35
2021/01/05 03:40:38;;;;;;;;;;;;;;;21.89;49.77;101260.19;2090142;28;42403;-35
2021/01/05 03:41:38;;;;;;;;;;;;;;;21.89;49.57;101260.19;2090956;28;39135;-35
2021/01/05 03:42:38;;;;;;;;;;;;;;;21.88;49.82;101260.50;2090492;28;41310;-36
2021/01/05 03:43:39;;;;;;;;;;;;;;;21.92;49.58;101262.31;2090782;28;41378;-36
2021/01/05 03:44:39;;;;;;;;;;;;;;;21.88;49.67;101251.97;2089479;28;39299;-36
2021/01/05 03:45:39;;;;;;;;;;;;;;;21.91;49.73;101256.97;2089980;28;32515;-35
2021/01/05 03:46:39;;;;;;;;;;;;;;;21.88;49.74;101257.66;2090477;28;42371;-36
2021/01/05 03:47:40;;;;;;;;;;;;;;;21.88;49.76;101257.66;2090439;28;41094;-35
2021/01/05 03:48:40;;;;;;;;;;;;;;;21.87;49.83;101256.00;2090675;28;41447;-35
2021/01/05 03:49:40;;;;;;;;;;;;;;;21.88;49.78;101251.97;2090925;28;41291;-36
2021/01/05 03:50:40;;;;;;;;;;;;;;;21.88;49.78;101254.81;2089979;28;44134;-35
2021/01/05 03:51:41;;;;;;;;;;;;;;;21.88;49.71;101249.94;2090258;28;42794;-36
2021/01/05 03:52:41;;;;;;;;;;;;;;;21.88;49.71;101251.97;2087561;28;43953;-35
2021/01/05 03:53:41;;;;;;;;;;;;;;;21.88;49.75;101251.97;2088890;28;43920;-35
2021/01/05 03:54:41;;;;;;;;;;;;;;;21.87;49.83;101250.31;2090649;28;41828;-35
2021/01/05 03:55:42;;;;;;;;;;;;;;;21.88;49.57;101251.97;2089443;28;42661;-35
2021/01/05 03:56:42;;;;;;;;;;;;;;;21.89;49.57;101248.78;2089088;28;44144;-36
2021/01/05 03:57:42;;;;;;;;;;;;;;;21.87;49.60;101250.31;2090424;28;40736;-36
2021/01/05 03:58:42;;;;;;;;;;;;;;;21.87;49.35;101251.13;2090868;28;41622;-35
2021/01/05 03:59:43;;;;;;;;;;;;;;;21.88;49.59;101255.66;2090428;28;43873;-36
2021/01/05 04:00:43;;;;;;;;;;;;;;;21.88;49.63;101249.13;2091548;28;12943;-36
2021/01/05 04:01:48;;;;;;;;;;;;;;;21.87;49.60;101244.63;2090970;28;39789;-36
2021/01/05 04:02:49;;;;;;;;;;;;;;;21.90;49.57;101261.00;2090522;28;43543;-36
2021/01/05 04:03:49;;;;;;;;;;;;;;;21.89;49.44;101257.31;2090597;28;40739;-36
2021/01/05 04:04:49;;;;;;;;;;;;;;;21.88;49.34;101251.97;2090343;28;42996;-36
2021/01/05 04:05:49;;;;;;;;;;;;;;;21.88;49.48;101246.28;2088753;28;44096;-36
2021/01/05 04:06:50;;;;;;;;;;;;;;;21.86;49.46;101252.34;2088432;28;41542;-37
2021/01/05 04:07:50;;;;;;;;;;;;;;;21.87;49.49;101245.44;2090605;28;41596;-36
2021/01/05 04:08:50;;;;;;;;;;;;;;;21.86;49.44;101252.34;2090273;28;43733;-36
2021/01/05 04:09:51;;;;;;;;;;;;;;;21.87;49.45;101253.16;2090460;28;41803;-35
2021/01/05 04:10:51;;;;;;;;;;;;;;;21.90;49.50;101258.16;2090772;28;42941;-37
2021/01/05 04:11:51;;;;;;;;;;;;;;;21.88;49.41;101249.94;2089974;28;44138;-36
2021/01/05 04:12:51;;;;;;;;;;;;;;;21.90;49.39;101256.13;2090195;28;43493;-35
2021/01/05 04:13:52;;;;;;;;;;;;;;;21.90;49.46;101261.84;2090376;28;44131;-35
2021/01/05 04:14:52;;;;;;;;;;;;;;;21.89;49.33;101263.03;2089944;28;40778;-36
2021/01/05 04:15:52;;;;;;;;;;;;;;;21.90;49.44;101255.31;2089796;28;43243;-36
2021/01/05 04:16:52;;;;;;;;;;;;;;;21.89;49.37;101263.03;2089049;28;43999;-35
2021/01/05 04:17:53;;;;;;;;;;;;;;;21.91;49.14;101260.63;2084308;28;44354;-36
2021/01/05 04:18:53;;;;;;;;;;;;;;;21.92;49.38;101252.94;2090246;28;43711;-36
2021/01/05 04:19:53;;;;;;;;;;;;;;;21.89;49.45;101257.31;2089781;28;42807;-36
2021/01/05 04:20:53;;;;;;;;;;;;;;;21.91;49.41;101254.13;2090526;28;43429;-35
2021/01/05 04:21:54;;;;;;;;;;;;;;;21.85;49.45;101259.19;2089381;28;42875;-36
2021/01/05 04:22:54;;;;;;;;;;;;;;;21.85;49.66;101255.50;2089852;28;42095;-36
2021/01/05 04:23:54;;;;;;;;;;;;;;;21.86;49.44;101262.88;2090555;28;40380;-36
2021/01/05 04:24:55;;;;;;;;;;;;;;;21.82;49.51;101254.19;2090890;28;41763;-36
2021/01/05 04:25:55;;;;;;;;;;;;;;;21.83;49.54;101260.72;2089668;28;44231;-36
2021/01/05 04:26:55;;;;;;;;;;;;;;;21.85;49.58;101264.06;2089736;28;40760;-36
2021/01/05 04:27:56;;;;;;;;;;;;;;;21.83;49.65;101261.53;2089908;28;12448;-35
2021/01/05 04:28:56;;;;;;;;;;;;;;;21.83;49.68;101255.03;2090773;28;43207;-37
2021/01/05 04:29:56;;;;;;;;;;;;;;;21.83;49.66;101263.56;2090987;28;13653;-36
2021/01/05 04:30:56;;;;;;;;;;;;;;;21.80;49.81;101254.53;2090013;28;30901;-36
2021/01/05 04:31:57;;;;;;;;;;;;;;;21.85;50.21;101264.06;2090370;28;42923;-37
2021/01/05 04:32:58;;;;;;;;;;;;;;;21.82;50.27;101257.03;2090258;28;43963;-37
2021/01/05 04:33:58;;;;;;;;;;;;;;;21.83;50.27;101255.03;2091463;28;12767;-37
2021/01/05 04:34:58;;;;;;;;;;;;;;;21.78;50.32;101259.75;2090046;28;38347;-36
2021/01/05 04:35:59;;;;;;;;;;;;;;;21.78;50.28;101253.25;2090258;28;41247;-36
2021/01/05 04:36:59;;;;;;;;;;;;;;;21.78;50.33;101261.78;2089526;28;41182;-36
2021/01/05 04:37:59;;;;;;;;;;;;;;;21.73;50.33;101259.97;2088740;28;38788;-36
2021/01/05 04:38:59;;;;;;;;;;;;;;;21.75;50.15;101259.59;2090312;28;41618;-36
2021/01/05 04:40:00;;;;;;;;;;;;;;;21.74;50.26;101266.50;2089851;28;42454;-36
2021/01/05 04:41:00;;;;;;;;;;;;;;;21.76;50.15;101262.13;2090010;28;41517;-36
2021/01/05 04:42:12;;;;;;;;;;;;;;;21.76;50.40;101261.28;2101475;28;12977;-36
2021/01/05 04:43:32;;;;;;;;;;;;;;;21.74;50.42;101257.94;2094141;28;40945;-36
2021/01/05 04:44:34;;;;;;;;;;;;;;;21.73;50.47;101267.69;2085051;28;12258;-36
2021/01/05 04:45:34;;;;;;;;;;;;;;;21.76;50.32;101262.13;2097809;28;41487;-36
2021/01/05 04:46:38;;;;;;;;;;;;;;;21.79;50.26;101263.44;2105936;28;41183;-36
2021/01/05 04:47:44;;;;;;;;;;;;;;;21.79;50.17;101260.59;2089069;28;41384;-36
2021/01/05 04:48:53;;;;;;;;;;;;;;;21.78;50.18;101259.75;2088811;28;12491;-35
2021/01/05 04:50:04;;;;;;;;;;;;;;;21.83;49.80;101266.41;2091724;28;12952;-37
2021/01/05 04:51:07;;;;;;;;;;;;;;;21.82;49.89;101264.75;2090058;28;40037;-36
2021/01/05 04:52:08;;;;;;;;;;;;;;;21.84;49.88;101268.09;2089592;28;42433;-36
2021/01/05 04:53:26;;;;;;;;;;;;;;;21.82;49.63;101259.06;2099189;28;12185;-36
2021/01/05 04:54:36;;;;;;;;;;;;;;;21.87;49.50;101253.16;2101802;28;12727;-36
2021/01/05 04:55:44;;;;;;;;;;;;;;;21.86;49.65;101262.88;2089678;28;41234;-36
2021/01/05 04:56:49;;;;;;;;;;;;;;;21.84;49.64;101268.94;2085662;28;41601;-37
2021/01/05 04:57:49;;;;;;;;;;;;;;;21.86;49.61;101254.31;2106237;28;40961;-36
2021/01/05 04:58:54;;;;;;;;;;;;;;;21.86;49.54;101257.16;2105658;28;43177;-36
2021/01/05 05:00:13;;;;;;;;;;;;;;;21.86;49.49;101263.72;2088518;28;43576;-36
2021/01/05 05:01:15;;;;;;;;;;;;;;;21.88;49.42;101260.50;2090474;28;13441;-36
2021/01/05 05:02:32;;;;;;;;;;;;;;;21.91;49.30;101260.63;2090592;28;42775;-36
2021/01/05 05:03:35;;;;;;;;;;;;;;;21.90;49.34;101256.13;2089294;28;44351;-36
2021/01/05 05:04:48;;;;;;;;;;;;;;;21.91;49.11;101252.09;2090963;28;14357;-36
2021/01/05 05:05:51;;;;;;;;;;;;;;;21.92;49.28;101255.81;2084814;28;43461;-35
2021/01/05 05:06:52;;;;;;;;;;;;;;;21.92;49.25;101253.78;2087053;28;13329;-35
2021/01/05 05:07:54;;;;;;;;;;;;;;;21.88;49.33;101251.97;2089284;28;42960;-36
2021/01/05 05:08:59;;;;;;;;;;;;;;;21.90;49.27;101256.13;2091223;28;13279;-35
2021/01/05 05:10:05;;;;;;;;;;;;;;;21.90;49.21;101258.16;2088324;28;13681;-36
2021/01/05 05:11:07;;;;;;;;;;;;;;;21.90;49.34;101255.31;2090826;28;15061;-35
2021/01/05 05:12:26;;;;;;;;;;;;;;;21.90;49.33;101255.31;2090804;28;13238;-35
2021/01/05 05:13:35;;;;;;;;;;;;;;;21.88;49.28;101260.50;2090883;28;12183;-36
2021/01/05 05:14:43;;;;;;;;;;;;;;;21.84;49.51;101254.69;2089832;28;43006;-36
2021/01/05 05:15:46;;;;;;;;;;;;;;;21.84;49.58;101259.56;2089465;28;41666;-35
2021/01/05 05:16:50;;;;;;;;;;;;;;;21.84;49.51;101253.84;2090848;28;13308;-36
2021/01/05 05:17:54;;;;;;;;;;;;;;;21.87;50.01;101256.84;2104422;28;42077;-36
2021/01/05 05:18:57;;;;;;;;;;;;;;;21.92;50.56;101259.47;2093906;28;39543;-36
2021/01/05 05:20:22;;;;;;;;;;;;;;;21.92;50.61;101259.47;2085311;28;13467;-36
2021/01/05 05:21:25;;;;;;;;;;;;;;;21.90;50.63;101249.59;2096857;28;42629;-35
2021/01/05 05:22:31;;;;;;;;;;;;;;;21.91;50.25;101256.97;2096487;28;43097;-36
2021/01/05 05:23:41;;;;;;;;;;;;;;;21.86;50.42;101258.03;2089904;28;44179;-35
2021/01/05 05:24:44;;;;;;;;;;;;;;;21.88;50.43;101249.13;2107326;28;13662;-37
2021/01/05 05:25:48;;;;;;;;;;;;;;;21.87;50.34;101253.97;2103738;28;13415;-35